Time;durP1;ratioP1;P1;durP2;ratioP2;P2;SDS_P1;SDS_P2;PMS_P1;PMS_P2;Temp;Humidity;BMP_temperature;BMP_pressure;BME280_temperature;BME280_humidity;BME280_pressure;Samples;Min_cycle;Max_cycle;Signal;HPM_P1;HPM_P2
2023/08/03 00:00:19;;;;;;;197.10;56.90;;;;;;;;;;5051390;28;20430;-50
2023/08/03 00:02:46;;;;;;;193.67;54.17;;;;;;;;;;5046534;28;20413;-47
2023/08/03 00:05:16;;;;;;;194.40;54.10;;;;;;;;;;5048835;28;20782;-51
2023/08/03 00:07:42;;;;;;;195.38;55.92;;;;;;;;;;5045635;28;20169;-48
2023/08/03 00:10:09;;;;;;;196.27;55.13;;;;;;;;;;5053092;28;20682;-50
2023/08/03 00:12:35;;;;;;;194.88;54.78;;;;;;;;;;5053152;28;20434;-51
2023/08/03 00:15:00;;;;;;;195.40;54.60;;;;;;;;;;5051327;28;20689;-46
2023/08/03 00:17:26;;;;;;;196.77;57.40;;;;;;;;;;5052784;28;20612;-47
2023/08/03 00:19:52;;;;;;;198.10;58.20;;;;;;;;;;5052749;28;20435;-48
2023/08/03 00:22:18;;;;;;;196.00;56.53;;;;;;;;;;5052915;28;20828;-47
2023/08/03 00:24:44;;;;;;;192.43;55.17;;;;;;;;;;5052937;28;20175;-47
2023/08/03 00:27:10;;;;;;;196.07;56.33;;;;;;;;;;5050352;28;20484;-48
2023/08/03 00:29:36;;;;;;;194.07;55.23;;;;;;;;;;5051922;28;20439;-50
2023/08/03 00:32:02;;;;;;;195.13;55.57;;;;;;;;;;5052816;28;20407;-52
2023/08/03 00:34:29;;;;;;;191.93;53.37;;;;;;;;;;5052728;28;20418;-48
2023/08/03 00:36:55;;;;;;;191.98;54.00;;;;;;;;;;5052641;28;20815;-48
2023/08/03 00:39:21;;;;;;;194.37;54.93;;;;;;;;;;5044341;28;20246;-48
2023/08/03 00:41:48;;;;;;;192.70;53.93;;;;;;;;;;5051104;28;20398;-50
2023/08/03 00:44:13;;;;;;;192.93;53.63;;;;;;;;;;5052457;28;20397;-52
2023/08/03 00:46:39;;;;;;;193.03;54.47;;;;;;;;;;5052624;28;20184;-53
2023/08/03 00:49:05;;;;;;;192.53;54.77;;;;;;;;;;5052626;28;20492;-47
2023/08/03 00:51:31;;;;;;;193.80;54.60;;;;;;;;;;5052103;28;20903;-47
2023/08/03 00:53:57;;;;;;;192.77;53.80;;;;;;;;;;5052434;28;20478;-47
2023/08/03 00:56:23;;;;;;;193.70;54.30;;;;;;;;;;5050930;28;20460;-48
2023/08/03 00:58:49;;;;;;;193.10;55.00;;;;;;;;;;5052329;28;20417;-47
2023/08/03 01:01:15;;;;;;;193.20;54.60;;;;;;;;;;5051671;28;20482;-53
2023/08/03 01:03:41;;;;;;;197.23;57.15;;;;;;;;;;5051812;28;20463;-50
2023/08/03 01:06:07;;;;;;;194.67;55.00;;;;;;;;;;5051923;28;20167;-51
2023/08/03 01:08:33;;;;;;;194.93;55.20;;;;;;;;;;5052047;28;20766;-53
2023/08/03 01:10:59;;;;;;;194.67;56.00;;;;;;;;;;5050664;28;20458;-53
2023/08/03 01:13:25;;;;;;;195.97;55.47;;;;;;;;;;5048911;28;20428;-53
2023/08/03 01:15:51;;;;;;;192.48;53.63;;;;;;;;;;5051996;28;20414;-53
2023/08/03 01:18:17;;;;;;;195.17;55.73;;;;;;;;;;5052294;28;20176;-53
2023/08/03 01:20:44;;;;;;;194.60;54.77;;;;;;;;;;5051674;28;20426;-52
2023/08/03 01:23:11;;;;;;;194.65;55.20;;;;;;;;;;5051193;28;20821;-53
2023/08/03 01:25:37;;;;;;;194.32;55.15;;;;;;;;;;5051642;28;20627;-52
2023/08/03 01:28:04;;;;;;;194.07;55.00;;;;;;;;;;5051923;28;20201;-52
2023/08/03 01:30:30;;;;;;;194.15;55.45;;;;;;;;;;5051749;28;20244;-52
2023/08/03 01:32:56;;;;;;;193.13;54.70;;;;;;;;;;5051792;28;20176;-52
2023/08/03 01:35:22;;;;;;;194.13;54.92;;;;;;;;;;5051534;28;20193;-51
2023/08/03 01:37:50;;;;;;;192.60;53.97;;;;;;;;;;5051636;28;20668;-51
2023/08/03 01:40:16;;;;;;;192.27;52.78;;;;;;;;;;5051777;28;20434;-47
2023/08/03 01:42:42;;;;;;;192.82;54.17;;;;;;;;;;5051699;28;20173;-50
2023/08/03 01:45:09;;;;;;;192.37;53.90;;;;;;;;;;5051708;28;20163;-48
2023/08/03 01:47:35;;;;;;;192.13;54.05;;;;;;;;;;5051507;28;20405;-50
2023/08/03 01:50:01;;;;;;;193.57;54.60;;;;;;;;;;5051540;28;20218;-47
2023/08/03 01:52:26;;;;;;;192.87;55.00;;;;;;;;;;5050414;28;21038;-48
2023/08/03 01:54:53;;;;;;;192.87;53.97;;;;;;;;;;5051436;28;20942;-48
2023/08/03 01:57:19;;;;;;;194.13;55.22;;;;;;;;;;5051291;28;20456;-47
2023/08/03 01:59:45;;;;;;;192.37;54.30;;;;;;;;;;5051239;28;20190;-48
2023/08/03 02:02:12;;;;;;;192.75;53.92;;;;;;;;;;5051867;28;20410;-48
2023/08/03 02:04:39;;;;;;;193.25;54.85;;;;;;;;;;5051381;28;20320;-49
2023/08/03 02:07:18;;;;;;;192.15;53.80;;;;;;;;;;5050367;28;20180;-49
2023/08/03 02:09:44;;;;;;;195.00;55.72;;;;;;;;;;5046384;28;20563;-48
2023/08/03 02:12:10;;;;;;;194.77;55.35;;;;;;;;;;5051358;28;20269;-47
2023/08/03 02:14:36;;;;;;;193.37;54.57;;;;;;;;;;5051388;28;20259;-48
2023/08/03 02:17:02;;;;;;;194.87;55.37;;;;;;;;;;5051401;28;20457;-48
2023/08/03 02:19:28;;;;;;;194.50;55.77;;;;;;;;;;5050052;28;20413;-48
2023/08/03 02:21:54;;;;;;;194.27;54.57;;;;;;;;;;5051490;28;20404;-52
2023/08/03 02:24:20;;;;;;;192.97;53.97;;;;;;;;;;5051174;28;20414;-47
2023/08/03 02:26:46;;;;;;;191.63;54.00;;;;;;;;;;5051312;28;20421;-48
2023/08/03 02:29:11;;;;;;;192.87;54.20;;;;;;;;;;5051229;28;20504;-48
2023/08/03 02:31:37;;;;;;;192.67;54.07;;;;;;;;;;5050877;28;20478;-47
2023/08/03 02:34:04;;;;;;;191.33;54.00;;;;;;;;;;5050170;28;20516;-48
2023/08/03 02:36:30;;;;;;;191.57;53.65;;;;;;;;;;5048177;28;20493;-48
2023/08/03 02:38:56;;;;;;;193.67;55.37;;;;;;;;;;5051134;28;20163;-48
2023/08/03 02:41:22;;;;;;;194.00;55.77;;;;;;;;;;5050756;28;20494;-48
2023/08/03 02:43:48;;;;;;;190.60;52.73;;;;;;;;;;5051002;28;20565;-51
2023/08/03 02:46:13;;;;;;;194.57;56.70;;;;;;;;;;5050992;28;20511;-49
2023/08/03 02:48:39;;;;;;;193.87;55.80;;;;;;;;;;5052529;28;20444;-47
2023/08/03 02:51:05;;;;;;;193.77;55.93;;;;;;;;;;5056922;28;20450;-49
2023/08/03 02:53:31;;;;;;;193.67;54.50;;;;;;;;;;5054691;28;20425;-46
2023/08/03 02:55:57;;;;;;;191.10;54.17;;;;;;;;;;5054696;28;20470;-47
2023/08/03 02:58:23;;;;;;;194.27;54.70;;;;;;;;;;5054560;28;20489;-49
2023/08/03 03:00:49;;;;;;;192.97;54.27;;;;;;;;;;5054428;28;20467;-50
2023/08/03 03:03:15;;;;;;;192.07;54.77;;;;;;;;;;5053628;28;20456;-47
2023/08/03 03:05:41;;;;;;;192.27;54.13;;;;;;;;;;5054382;28;20413;-48
2023/08/03 03:08:07;;;;;;;191.60;54.00;;;;;;;;;;5054524;28;20813;-48
2023/08/03 03:10:33;;;;;;;192.57;55.53;;;;;;;;;;5048982;28;21021;-48
2023/08/03 03:12:59;;;;;;;192.40;54.00;;;;;;;;;;5054236;28;20513;-49
2023/08/03 03:15:25;;;;;;;191.13;53.40;;;;;;;;;;5052935;28;20427;-48
2023/08/03 03:17:51;;;;;;;193.00;54.67;;;;;;;;;;5054157;28;20457;-51
2023/08/03 03:20:17;;;;;;;192.27;54.77;;;;;;;;;;5051049;28;20509;-48
2023/08/03 03:22:42;;;;;;;192.97;53.93;;;;;;;;;;5054224;28;20414;-48
2023/08/03 03:25:09;;;;;;;192.63;55.07;;;;;;;;;;5054135;28;20405;-48
2023/08/03 03:27:35;;;;;;;193.05;54.33;;;;;;;;;;5054114;28;20412;-47
2023/08/03 03:30:01;;;;;;;194.40;55.47;;;;;;;;;;5053766;28;20582;-50
2023/08/03 03:32:27;;;;;;;192.17;53.77;;;;;;;;;;5053958;28;20446;-48
2023/08/03 03:34:53;;;;;;;194.13;56.30;;;;;;;;;;5053891;28;20961;-48
2023/08/03 03:37:19;;;;;;;193.73;55.13;;;;;;;;;;5053787;28;20332;-50
2023/08/03 03:39:45;;;;;;;193.23;54.37;;;;;;;;;;5053576;28;20938;-50
2023/08/03 03:42:11;;;;;;;192.40;54.10;;;;;;;;;;5053895;28;20463;-51
2023/08/03 03:44:37;;;;;;;192.90;54.37;;;;;;;;;;5052604;28;20409;-53
2023/08/03 03:47:03;;;;;;;193.02;54.63;;;;;;;;;;5053736;28;20493;-50
2023/08/03 03:49:29;;;;;;;193.67;54.37;;;;;;;;;;5053364;28;20293;-54
2023/08/03 03:51:55;;;;;;;192.57;54.33;;;;;;;;;;5053550;28;20746;-54
2023/08/03 03:54:21;;;;;;;192.17;54.27;;;;;;;;;;5053556;28;20746;-53
2023/08/03 03:56:47;;;;;;;194.03;55.53;;;;;;;;;;5053469;28;20456;-54
2023/08/03 03:59:13;;;;;;;191.33;53.87;;;;;;;;;;5052340;28;20913;-53
2023/08/03 04:01:39;;;;;;;193.77;54.97;;;;;;;;;;5053656;28;20431;-51
2023/08/03 04:04:05;;;;;;;194.17;54.90;;;;;;;;;;5053276;28;20965;-50
2023/08/03 04:06:31;;;;;;;192.17;53.57;;;;;;;;;;5047461;28;20919;-52
2023/08/03 04:08:57;;;;;;;191.80;54.08;;;;;;;;;;5053299;28;20870;-52
2023/08/03 04:11:23;;;;;;;195.10;58.13;;;;;;;;;;5053074;28;20199;-52
2023/08/03 04:13:49;;;;;;;191.53;53.40;;;;;;;;;;5053362;28;20759;-51
2023/08/03 04:16:15;;;;;;;192.77;54.55;;;;;;;;;;5052991;28;20453;-52
2023/08/03 04:18:41;;;;;;;191.47;54.20;;;;;;;;;;5048941;28;20242;-51
2023/08/03 04:21:07;;;;;;;192.50;54.60;;;;;;;;;;5058543;28;20428;-51
2023/08/03 04:23:32;;;;;;;194.40;55.90;;;;;;;;;;5060396;28;20464;-53
2023/08/03 04:25:59;;;;;;;192.57;54.70;;;;;;;;;;5053019;28;20397;-51
2023/08/03 04:28:25;;;;;;;192.13;53.72;;;;;;;;;;5052920;28;20406;-52
2023/08/03 04:30:50;;;;;;;190.57;53.60;;;;;;;;;;5053535;28;20185;-51
2023/08/03 04:33:16;;;;;;;193.00;55.30;;;;;;;;;;5055748;28;20489;-52
2023/08/03 04:35:42;;;;;;;193.23;55.43;;;;;;;;;;5058348;28;20410;-52
2023/08/03 04:38:08;;;;;;;192.87;54.30;;;;;;;;;;5052719;28;20417;-50
2023/08/03 04:40:35;;;;;;;193.47;55.10;;;;;;;;;;5045320;28;20443;-53
2023/08/03 04:43:02;;;;;;;193.35;54.60;;;;;;;;;;5052654;28;20403;-51
2023/08/03 04:45:28;;;;;;;191.77;52.97;;;;;;;;;;5050433;28;20610;-51
2023/08/03 04:47:54;;;;;;;192.70;55.63;;;;;;;;;;5048970;28;20494;-53
2023/08/03 04:50:22;;;;;;;193.77;55.33;;;;;;;;;;5052339;28;20455;-51
2023/08/03 04:52:48;;;;;;;193.43;54.53;;;;;;;;;;5052545;28;20401;-52
2023/08/03 04:55:14;;;;;;;193.77;54.87;;;;;;;;;;5052219;28;20196;-52
2023/08/03 04:57:40;;;;;;;194.20;56.57;;;;;;;;;;5052383;28;20801;-52
2023/08/03 05:00:06;;;;;;;191.33;53.70;;;;;;;;;;5052032;28;20440;-52
2023/08/03 05:02:32;;;;;;;196.13;57.25;;;;;;;;;;5052102;28;20424;-50
2023/08/03 05:04:58;;;;;;;191.57;53.60;;;;;;;;;;5052254;28;20181;-52
2023/08/03 05:07:24;;;;;;;192.07;54.17;;;;;;;;;;5052229;28;20492;-52
2023/08/03 05:09:50;;;;;;;194.33;56.97;;;;;;;;;;5051428;28;20425;-53
2023/08/03 05:12:16;;;;;;;194.40;55.80;;;;;;;;;;5052297;28;20407;-53
2023/08/03 05:14:42;;;;;;;193.27;54.50;;;;;;;;;;5052025;28;20437;-52
2023/08/03 05:17:07;;;;;;;192.47;54.10;;;;;;;;;;5051803;28;20463;-52
2023/08/03 05:19:33;;;;;;;194.67;55.87;;;;;;;;;;5051816;28;20413;-52
2023/08/03 05:21:59;;;;;;;191.97;53.47;;;;;;;;;;5051969;28;20416;-52
2023/08/03 05:24:25;;;;;;;191.37;53.43;;;;;;;;;;5051839;28;20422;-53
2023/08/03 05:26:51;;;;;;;192.82;54.20;;;;;;;;;;5050371;28;20525;-52
2023/08/03 05:29:18;;;;;;;194.07;54.87;;;;;;;;;;5051773;28;20713;-52
2023/08/03 05:31:47;;;;;;;194.93;55.63;;;;;;;;;;5051991;28;20480;-52
2023/08/03 05:34:13;;;;;;;193.25;54.50;;;;;;;;;;5051966;28;20649;-52
2023/08/03 05:36:39;;;;;;;193.83;55.17;;;;;;;;;;5050182;28;20202;-51
2023/08/03 05:39:05;;;;;;;194.00;55.10;;;;;;;;;;5051806;28;20439;-51
2023/08/03 05:41:31;;;;;;;193.57;53.87;;;;;;;;;;5049887;28;20439;-52
2023/08/03 05:43:57;;;;;;;192.50;53.92;;;;;;;;;;5051454;28;20457;-51
2023/08/03 05:46:23;;;;;;;194.27;54.67;;;;;;;;;;5051581;28;20266;-53
2023/08/03 05:48:49;;;;;;;193.47;53.43;;;;;;;;;;5048520;28;20420;-52
2023/08/03 05:51:22;;;;;;;194.50;54.88;;;;;;;;;;5047996;28;20584;-51
2023/08/03 05:53:48;;;;;;;193.68;53.95;;;;;;;;;;5051574;28;20174;-50
2023/08/03 05:56:14;;;;;;;193.73;54.65;;;;;;;;;;5049824;28;20690;-50
2023/08/03 05:58:40;;;;;;;194.33;54.77;;;;;;;;;;5051387;28;20176;-52
2023/08/03 06:01:10;;;;;;;194.47;54.60;;;;;;;;;;5051223;28;20431;-52
2023/08/03 06:03:39;;;;;;;194.80;55.28;;;;;;;;;;5051257;28;20411;-52
2023/08/03 06:06:08;;;;;;;194.27;54.22;;;;;;;;;;5051443;28;20172;-51
2023/08/03 06:08:34;;;;;;;193.68;54.03;;;;;;;;;;5050009;28;20184;-50
2023/08/03 06:11:03;;;;;;;194.98;53.80;;;;;;;;;;5051017;28;20306;-51
2023/08/03 06:13:31;;;;;;;194.05;54.35;;;;;;;;;;5051429;28;20175;-51
2023/08/03 06:15:57;;;;;;;194.15;53.97;;;;;;;;;;5051419;28;20531;-52
2023/08/03 06:18:23;;;;;;;195.10;55.57;;;;;;;;;;5051261;28;20186;-52
2023/08/03 06:20:50;;;;;;;192.70;54.00;;;;;;;;;;5050958;28;20432;-52
2023/08/03 06:23:17;;;;;;;194.77;55.35;;;;;;;;;;5053643;28;20417;-52
2023/08/03 06:25:43;;;;;;;193.63;54.00;;;;;;;;;;5055008;28;20526;-52
2023/08/03 06:28:10;;;;;;;193.52;54.25;;;;;;;;;;5055231;28;20664;-52
2023/08/03 06:30:37;;;;;;;195.27;55.40;;;;;;;;;;5054834;28;20176;-50
2023/08/03 06:33:03;;;;;;;194.18;55.03;;;;;;;;;;5055164;28;20651;-50
2023/08/03 06:35:29;;;;;;;195.82;54.83;;;;;;;;;;5047338;28;20740;-49
2023/08/03 06:37:55;;;;;;;194.10;54.87;;;;;;;;;;5052503;28;20295;-53
2023/08/03 06:40:21;;;;;;;192.88;53.40;;;;;;;;;;5054542;28;20424;-52
2023/08/03 06:42:47;;;;;;;195.00;55.17;;;;;;;;;;5055212;28;20176;-51
2023/08/03 06:45:13;;;;;;;194.20;53.87;;;;;;;;;;5054918;28;20182;-53
2023/08/03 06:47:39;;;;;;;194.07;54.45;;;;;;;;;;5054966;28;20482;-53
2023/08/03 06:50:05;;;;;;;197.17;54.63;;;;;;;;;;5054592;28;20290;-53
2023/08/03 06:52:31;;;;;;;196.82;54.92;;;;;;;;;;5053903;28;20423;-54
2023/08/03 06:54:57;;;;;;;194.90;55.37;;;;;;;;;;5054671;28;20176;-53
2023/08/03 06:57:23;;;;;;;193.73;54.35;;;;;;;;;;5050205;28;20494;-55
2023/08/03 06:59:50;;;;;;;198.45;57.92;;;;;;;;;;5054538;28;20774;-54
2023/08/03 07:02:16;;;;;;;195.57;54.93;;;;;;;;;;5054658;28;20213;-53
2023/08/03 07:04:42;;;;;;;194.87;54.67;;;;;;;;;;5054548;28;20890;-53
2023/08/03 07:07:08;;;;;;;196.10;54.77;;;;;;;;;;5055000;28;20454;-52
2023/08/03 07:09:34;;;;;;;194.82;53.85;;;;;;;;;;5054143;28;20403;-53
2023/08/03 07:12:00;;;;;;;195.47;54.67;;;;;;;;;;5054259;28;20657;-54
2023/08/03 07:14:26;;;;;;;196.27;55.07;;;;;;;;;;5053561;28;20967;-53
2023/08/03 07:16:52;;;;;;;195.00;54.50;;;;;;;;;;5054293;28;20481;-54
2023/08/03 07:19:18;;;;;;;192.73;54.10;;;;;;;;;;5054345;28;20428;-54
2023/08/03 07:21:44;;;;;;;191.90;53.80;;;;;;;;;;5054052;28;20789;-54
2023/08/03 07:24:10;;;;;;;193.27;54.70;;;;;;;;;;5054080;28;20399;-52
2023/08/03 07:26:36;;;;;;;194.13;54.72;;;;;;;;;;5054078;28;20178;-54
2023/08/03 07:29:02;;;;;;;191.30;52.80;;;;;;;;;;5053410;28;20184;-54
2023/08/03 07:31:28;;;;;;;192.63;53.90;;;;;;;;;;5053730;28;20437;-54
2023/08/03 07:33:54;;;;;;;192.27;54.00;;;;;;;;;;5052982;28;20411;-54
2023/08/03 07:36:20;;;;;;;196.43;56.77;;;;;;;;;;5047728;28;20462;-54
2023/08/03 07:38:46;;;;;;;192.48;53.72;;;;;;;;;;5053918;28;20413;-53
2023/08/03 07:41:12;;;;;;;194.75;55.47;;;;;;;;;;5050657;28;20276;-53
2023/08/03 07:43:38;;;;;;;193.20;54.33;;;;;;;;;;5048709;28;20652;-53
2023/08/03 07:46:04;;;;;;;193.10;55.17;;;;;;;;;;5061866;28;20181;-52
2023/08/03 07:48:30;;;;;;;192.35;54.53;;;;;;;;;;5053345;28;20459;-52
2023/08/03 07:50:56;;;;;;;193.40;54.33;;;;;;;;;;5053447;28;20627;-52
2023/08/03 07:53:22;;;;;;;193.37;55.03;;;;;;;;;;5053745;28;20817;-54
2023/08/03 07:55:48;;;;;;;192.67;54.37;;;;;;;;;;5049957;28;20410;-54
2023/08/03 07:58:14;;;;;;;192.17;54.37;;;;;;;;;;5053419;28;20432;-52
2023/08/03 08:00:40;;;;;;;193.10;55.35;;;;;;;;;;5053103;28;20433;-53
2023/08/03 08:03:06;;;;;;;191.60;53.67;;;;;;;;;;5053260;28;20655;-53
2023/08/03 08:05:32;;;;;;;192.73;54.90;;;;;;;;;;5053335;28;20469;-52
2023/08/03 08:07:58;;;;;;;192.43;54.67;;;;;;;;;;5053454;28;20940;-52
2023/08/03 08:10:24;;;;;;;194.47;55.93;;;;;;;;;;5053014;28;20983;-53
2023/08/03 08:12:50;;;;;;;191.30;53.33;;;;;;;;;;5053292;28;20415;-53
2023/08/03 08:15:16;;;;;;;191.57;53.77;;;;;;;;;;5053013;28;20421;-53
2023/08/03 08:17:42;;;;;;;193.38;54.75;;;;;;;;;;5052824;28;20472;-54
2023/08/03 08:20:08;;;;;;;191.27;53.93;;;;;;;;;;5052823;28;20282;-53
2023/08/03 08:22:34;;;;;;;191.57;54.10;;;;;;;;;;5053017;28;20921;-52
2023/08/03 08:25:00;;;;;;;192.00;55.13;;;;;;;;;;5052987;28;20213;-53
2023/08/03 08:27:26;;;;;;;192.57;55.90;;;;;;;;;;5052966;28;20819;-52
2023/08/03 08:29:52;;;;;;;198.07;62.80;;;;;;;;;;5052484;28;20451;-53
2023/08/03 08:32:18;;;;;;;191.30;54.77;;;;;;;;;;5052942;28;20409;-54
2023/08/03 08:34:44;;;;;;;192.70;56.67;;;;;;;;;;5053061;28;20417;-53
2023/08/03 08:37:10;;;;;;;192.87;55.73;;;;;;;;;;5052664;28;20464;-53
2023/08/03 08:39:36;;;;;;;194.30;57.70;;;;;;;;;;5052660;28;20414;-53
2023/08/03 08:42:11;;;;;;;193.10;56.25;;;;;;;;;;5047511;28;20418;-53
2023/08/03 08:44:38;;;;;;;191.77;54.35;;;;;;;;;;5051686;28;20175;-52
2023/08/03 08:47:04;;;;;;;192.60;55.72;;;;;;;;;;5052138;28;20236;-53
2023/08/03 08:49:30;;;;;;;193.30;57.78;;;;;;;;;;5052452;28;20171;-53
2023/08/03 08:51:59;;;;;;;192.87;56.27;;;;;;;;;;5052435;28;20235;-52
2023/08/03 08:54:31;;;;;;;195.15;57.28;;;;;;;;;;5044712;28;20458;-53
2023/08/03 08:56:57;;;;;;;194.23;57.67;;;;;;;;;;5052157;28;20194;-53
2023/08/03 08:59:23;;;;;;;194.70;57.50;;;;;;;;;;5052269;28;20181;-52
2023/08/03 09:01:50;;;;;;;194.17;55.87;;;;;;;;;;5052518;28;20436;-54
2023/08/03 09:04:26;;;;;;;195.55;57.22;;;;;;;;;;5050399;28;20409;-53
2023/08/03 09:06:52;;;;;;;193.98;56.35;;;;;;;;;;5050714;28;20584;-53
2023/08/03 09:09:25;;;;;;;195.35;58.28;;;;;;;;;;5050854;28;20162;-52
2023/08/03 09:11:51;;;;;;;193.60;56.30;;;;;;;;;;5044102;28;20547;-53
2023/08/03 09:14:17;;;;;;;193.67;55.07;;;;;;;;;;5052017;28;20178;-53
2023/08/03 09:16:43;;;;;;;195.07;57.35;;;;;;;;;;5050076;28;20979;-53
2023/08/03 09:19:09;;;;;;;192.10;54.80;;;;;;;;;;5052041;28;20178;-54
2023/08/03 09:21:35;;;;;;;192.37;55.90;;;;;;;;;;5051793;28;20236;-53
2023/08/03 09:24:21;;;;;;;192.00;55.17;;;;;;;;;;5051871;28;20843;-54
2023/08/03 09:26:47;;;;;;;191.02;54.58;;;;;;;;;;5040533;28;20462;-54
2023/08/03 09:29:14;;;;;;;192.52;56.53;;;;;;;;;;5048450;28;20166;-53
2023/08/03 09:31:40;;;;;;;192.83;56.20;;;;;;;;;;5051674;28;20192;-52
2023/08/03 09:34:05;;;;;;;194.63;57.87;;;;;;;;;;5051789;28;20816;-52
2023/08/03 09:36:31;;;;;;;193.87;56.70;;;;;;;;;;5051430;28;20491;-53
2023/08/03 09:39:10;;;;;;;193.77;55.90;;;;;;;;;;5051380;28;20464;-53
2023/08/03 09:41:36;;;;;;;193.98;57.15;;;;;;;;;;5050464;28;20725;-53
2023/08/03 09:44:05;;;;;;;196.07;58.33;;;;;;;;;;5051659;28;20256;-52
2023/08/03 09:46:32;;;;;;;193.52;57.38;;;;;;;;;;5044417;28;20259;-53
2023/08/03 09:48:58;;;;;;;193.60;56.47;;;;;;;;;;5050702;28;20192;-53
2023/08/03 09:51:28;;;;;;;194.70;58.20;;;;;;;;;;5051200;28;20199;-53
2023/08/03 09:53:56;;;;;;;194.00;56.33;;;;;;;;;;5051500;28;20505;-53
2023/08/03 09:56:24;;;;;;;195.45;58.83;;;;;;;;;;5050889;28;20203;-53
2023/08/03 09:58:53;;;;;;;194.63;57.85;;;;;;;;;;5051584;28;20168;-52
2023/08/03 10:01:25;;;;;;;196.25;58.08;;;;;;;;;;5051140;28;20688;-53
2023/08/03 10:03:57;;;;;;;196.15;57.20;;;;;;;;;;5051550;28;20604;-53
2023/08/03 10:06:26;;;;;;;197.48;60.25;;;;;;;;;;5049520;28;20172;-54
2023/08/03 10:08:55;;;;;;;193.23;56.63;;;;;;;;;;5051414;28;20268;-52
2023/08/03 10:11:23;;;;;;;193.00;56.17;;;;;;;;;;5051025;28;20239;-52
2023/08/03 10:13:50;;;;;;;195.73;58.92;;;;;;;;;;5051303;28;20641;-54
2023/08/03 10:16:16;;;;;;;197.50;60.03;;;;;;;;;;5050764;28;20240;-53
2023/08/03 10:18:42;;;;;;;195.32;58.22;;;;;;;;;;5050384;28;20410;-54
2023/08/03 10:21:09;;;;;;;191.77;55.92;;;;;;;;;;5051050;28;20574;-54
2023/08/03 10:23:38;;;;;;;196.75;58.67;;;;;;;;;;5051232;28;20170;-54
2023/08/03 10:26:04;;;;;;;194.82;57.70;;;;;;;;;;5051529;28;20639;-53
2023/08/03 10:28:39;;;;;;;194.90;56.85;;;;;;;;;;5051610;28;20175;-52
2023/08/03 10:31:07;;;;;;;194.65;57.70;;;;;;;;;;5050969;28;20247;-54
2023/08/03 10:34:02;;;;;;;197.18;59.67;;;;;;;;;;5051616;28;20657;-54
2023/08/03 10:36:28;;;;;;;195.70;57.90;;;;;;;;;;5046438;28;20692;-53
2023/08/03 10:38:58;;;;;;;192.90;57.03;;;;;;;;;;5051226;28;20172;-53
2023/08/03 10:41:25;;;;;;;194.77;59.10;;;;;;;;;;5050944;28;20227;-54
2023/08/03 10:44:06;;;;;;;195.45;57.10;;;;;;;;;;5051090;28;20467;-53
2023/08/03 10:46:32;;;;;;;197.68;59.35;;;;;;;;;;5050785;28;20172;-53
2023/08/03 10:48:58;;;;;;;195.97;57.97;;;;;;;;;;5050743;28;20543;-52
2023/08/03 10:51:24;;;;;;;194.50;57.07;;;;;;;;;;5050683;28;20445;-52
2023/08/03 10:53:50;;;;;;;195.63;56.90;;;;;;;;;;5050963;28;20420;-53
2023/08/03 10:56:16;;;;;;;196.23;58.77;;;;;;;;;;5035229;28;20231;-51
2023/08/03 10:58:47;;;;;;;196.87;58.50;;;;;;;;;;5043633;28;20970;-53
2023/08/03 11:01:22;;;;;;;195.27;58.47;;;;;;;;;;5050706;28;20430;-54
2023/08/03 11:03:48;;;;;;;195.60;59.05;;;;;;;;;;5051031;28;20261;-53
2023/08/03 11:06:14;;;;;;;193.37;55.70;;;;;;;;;;5050921;28;20209;-53
2023/08/03 11:08:40;;;;;;;194.18;57.58;;;;;;;;;;5051819;28;20411;-53
2023/08/03 11:11:12;;;;;;;196.17;59.13;;;;;;;;;;5054169;28;20192;-53
2023/08/03 11:13:40;;;;;;;196.00;59.20;;;;;;;;;;5054528;28;20448;-53
2023/08/03 11:16:07;;;;;;;194.57;56.87;;;;;;;;;;5054293;28;20515;-53
2023/08/03 11:18:36;;;;;;;195.67;59.00;;;;;;;;;;5054420;28;20422;-53
2023/08/03 11:21:02;;;;;;;195.87;58.17;;;;;;;;;;5054139;28;20484;-53
2023/08/03 11:23:31;;;;;;;197.47;59.00;;;;;;;;;;5054081;28;20422;-52
2023/08/03 11:25:58;;;;;;;193.55;56.33;;;;;;;;;;5054223;28;20442;-53
2023/08/03 11:28:24;;;;;;;196.07;59.03;;;;;;;;;;5054194;28;20183;-53
2023/08/03 11:30:50;;;;;;;195.67;59.13;;;;;;;;;;5053917;28;20200;-54
2023/08/03 11:33:16;;;;;;;194.07;56.43;;;;;;;;;;5054208;28;20456;-54
2023/08/03 11:35:43;;;;;;;194.70;57.17;;;;;;;;;;5053950;28;20472;-54
2023/08/03 11:38:10;;;;;;;194.02;58.22;;;;;;;;;;5053809;28;20460;-53
2023/08/03 11:40:36;;;;;;;194.57;58.08;;;;;;;;;;5053744;28;20277;-53
2023/08/03 11:43:03;;;;;;;196.20;59.35;;;;;;;;;;5053979;28;20175;-54
2023/08/03 11:45:29;;;;;;;195.38;57.33;;;;;;;;;;5053834;28;20205;-54
2023/08/03 11:47:58;;;;;;;195.43;58.38;;;;;;;;;;5053812;28;20242;-54
2023/08/03 11:50:25;;;;;;;195.57;58.97;;;;;;;;;;5052990;28;20206;-54
2023/08/03 11:53:01;;;;;;;193.98;56.70;;;;;;;;;;5053905;28;20171;-54
2023/08/03 11:55:28;;;;;;;196.32;58.88;;;;;;;;;;5053669;28;20184;-54
2023/08/03 11:58:13;;;;;;;197.70;60.08;;;;;;;;;;5053532;28;20204;-54
2023/08/03 12:00:39;;;;;;;194.60;58.58;;;;;;;;;;5053239;28;20221;-54
2023/08/03 12:03:05;;;;;;;195.35;58.28;;;;;;;;;;5041413;28;20562;-52
2023/08/03 12:05:47;;;;;;;194.97;57.47;;;;;;;;;;5042650;28;20257;-54
2023/08/03 12:08:16;;;;;;;194.03;57.03;;;;;;;;;;5053481;28;20919;-54
2023/08/03 12:10:55;;;;;;;193.17;57.20;;;;;;;;;;5053103;28;20431;-53
2023/08/03 12:13:21;;;;;;;194.07;57.53;;;;;;;;;;5053474;28;20923;-53
2023/08/03 12:15:47;;;;;;;194.47;58.07;;;;;;;;;;5053261;28;20662;-54
2023/08/03 12:18:13;;;;;;;195.57;57.37;;;;;;;;;;5053548;28;20460;-54
2023/08/03 12:20:39;;;;;;;195.97;58.93;;;;;;;;;;5052656;28;20436;-53
2023/08/03 12:23:04;;;;;;;194.60;59.70;;;;;;;;;;5053265;28;20418;-54
2023/08/03 12:25:30;;;;;;;196.07;60.07;;;;;;;;;;5052899;28;20447;-54
2023/08/03 12:27:56;;;;;;;195.67;58.13;;;;;;;;;;5053151;28;20420;-54
2023/08/03 12:30:22;;;;;;;196.73;60.70;;;;;;;;;;5058957;28;20847;-54
2023/08/03 12:32:48;;;;;;;196.57;59.33;;;;;;;;;;5066799;28;20994;-53
2023/08/03 12:35:14;;;;;;;196.27;59.77;;;;;;;;;;5032870;28;20429;-53
2023/08/03 12:37:40;;;;;;;194.73;59.00;;;;;;;;;;5051817;28;20486;-51
2023/08/03 12:40:06;;;;;;;195.93;60.17;;;;;;;;;;5050791;28;20421;-54
2023/08/03 12:42:32;;;;;;;196.60;60.10;;;;;;;;;;5052740;28;20749;-54
2023/08/03 12:44:58;;;;;;;195.17;59.57;;;;;;;;;;5052808;28;20788;-54
2023/08/03 12:47:24;;;;;;;197.57;60.47;;;;;;;;;;5052724;28;20472;-54
2023/08/03 12:49:52;;;;;;;201.93;66.03;;;;;;;;;;5050359;28;20817;-52
2023/08/03 12:52:18;;;;;;;194.87;58.87;;;;;;;;;;5048297;28;20471;-53
2023/08/03 12:54:44;;;;;;;194.37;58.60;;;;;;;;;;5052640;28;20413;-54
2023/08/03 12:57:10;;;;;;;195.67;59.43;;;;;;;;;;5052296;28;20471;-54
2023/08/03 12:59:36;;;;;;;195.57;58.63;;;;;;;;;;5052239;28;20444;-54
2023/08/03 13:02:02;;;;;;;193.70;56.60;;;;;;;;;;5052587;28;20428;-51
2023/08/03 13:04:28;;;;;;;198.20;62.20;;;;;;;;;;5051269;28;20412;-51
2023/08/03 13:06:54;;;;;;;193.23;57.53;;;;;;;;;;5049418;28;20460;-54
2023/08/03 13:09:20;;;;;;;191.47;56.67;;;;;;;;;;5048954;28;20500;-54
2023/08/03 13:11:46;;;;;;;193.63;57.30;;;;;;;;;;5050718;28;20432;-53
2023/08/03 13:14:12;;;;;;;195.00;58.30;;;;;;;;;;5052427;28;20437;-54
2023/08/03 13:16:38;;;;;;;195.60;61.30;;;;;;;;;;5052021;28;20597;-53
2023/08/03 13:19:04;;;;;;;192.77;56.10;;;;;;;;;;5052037;28;20412;-52
2023/08/03 13:21:30;;;;;;;196.57;60.87;;;;;;;;;;5050188;28;20521;-53
2023/08/03 13:23:56;;;;;;;193.00;57.77;;;;;;;;;;5052064;28;20404;-53
2023/08/03 13:26:22;;;;;;;193.87;58.70;;;;;;;;;;5052105;28;20496;-54
2023/08/03 13:28:50;;;;;;;194.47;59.07;;;;;;;;;;5052052;28;20438;-53
2023/08/03 13:31:19;;;;;;;195.73;61.53;;;;;;;;;;5050974;28;20429;-54
2023/08/03 13:33:45;;;;;;;195.67;60.17;;;;;;;;;;5051827;28;20410;-52
2023/08/03 13:36:11;;;;;;;197.50;61.00;;;;;;;;;;5050112;28;20501;-52
2023/08/03 13:38:37;;;;;;;196.17;59.97;;;;;;;;;;5048627;28;20440;-53
2023/08/03 13:41:03;;;;;;;195.80;60.53;;;;;;;;;;5051572;28;20466;-53
2023/08/03 13:43:29;;;;;;;196.07;59.67;;;;;;;;;;5051658;28;20418;-53
2023/08/03 13:45:55;;;;;;;195.73;59.30;;;;;;;;;;5051767;28;20412;-54
2023/08/03 13:48:21;;;;;;;199.80;65.63;;;;;;;;;;5049696;28;20896;-53
2023/08/03 13:50:48;;;;;;;196.67;61.07;;;;;;;;;;5051261;28;20460;-54
2023/08/03 13:53:14;;;;;;;195.07;59.83;;;;;;;;;;5051607;28;20420;-53
2023/08/03 13:55:40;;;;;;;195.27;59.60;;;;;;;;;;5051618;28;20417;-54
2023/08/03 13:58:06;;;;;;;194.30;58.87;;;;;;;;;;5051499;28;20464;-54
2023/08/03 14:00:33;;;;;;;194.97;58.27;;;;;;;;;;5051087;28;20433;-54